Time;durP1;ratioP1;P1;durP2;ratioP2;P2;SDS_P1;SDS_P2;PMS_P1;PMS_P2;Temp;Humidity;BMP_temperature;BMP_pressure;BME280_temperature;BME280_humidity;BME280_pressure;Samples;Min_cycle;Max_cycle;Signal;HPM_P1;HPM_P2
2022/07/12 00:00:01;;;;;;;4.88;2.10;;;14.30;99.90;;;;;;5081403;28;20043;-80
2022/07/12 00:02:27;;;;;;;3.65;2.08;;;14.30;99.90;;;;;;5098850;28;20055;-80
2022/07/12 00:04:52;;;;;;;4.20;2.08;;;14.30;99.90;;;;;;5082462;28;20126;-80
2022/07/12 00:07:18;;;;;;;2.65;1.90;;;14.20;99.90;;;;;;5099287;28;20138;-80
2022/07/12 00:09:44;;;;;;;3.65;2.60;;;14.20;99.90;;;;;;5098795;28;20110;-81
2022/07/12 00:12:10;;;;;;;3.10;2.10;;;14.20;99.90;;;;;;5099729;28;20579;-80
2022/07/12 00:14:36;;;;;;;3.45;2.28;;;14.10;99.90;;;;;;5098709;28;20043;-81
2022/07/12 00:17:04;;;;;;;3.60;2.13;;;14.10;99.90;;;;;;5098256;28;20036;-80
2022/07/12 00:19:29;;;;;;;2.85;2.03;;;14.10;99.90;;;;;;5116797;28;20093;-80
2022/07/12 00:21:55;;;;;;;3.05;2.10;;;14.10;99.90;;;;;;5082746;28;20501;-80
2022/07/12 00:24:20;;;;;;;2.80;2.05;;;14.10;99.90;;;;;;5099393;28;20173;-80
2022/07/12 00:26:46;;;;;;;3.15;2.15;;;14.00;99.90;;;;;;5098309;28;20054;-80
2022/07/12 00:29:12;;;;;;;9.32;3.30;;;14.10;99.90;;;;;;5098244;28;20350;-80
2022/07/12 00:31:37;;;;;;;2.85;2.05;;;14.00;99.90;;;;;;5098198;28;20054;-80
2022/07/12 00:34:03;;;;;;;3.88;2.60;;;13.90;99.90;;;;;;5098470;28;20032;-80
2022/07/12 00:36:29;;;;;;;2.42;1.92;;;13.90;99.90;;;;;;5098354;28;20042;-80
2022/07/12 00:38:56;;;;;;;3.22;1.90;;;13.90;99.90;;;;;;5098314;28;20482;-80
2022/07/12 00:41:22;;;;;;;3.28;1.90;;;13.90;99.90;;;;;;5080986;28;20035;-80
2022/07/12 00:43:47;;;;;;;5.22;1.95;;;14.00;99.90;;;;;;5098539;28;20065;-80
2022/07/12 00:46:15;;;;;;;2.95;1.60;;;14.00;99.90;;;;;;5098488;28;20036;-80
2022/07/12 00:48:41;;;;;;;3.55;1.50;;;13.90;99.90;;;;;;5098653;28;20051;-80
2022/07/12 00:51:06;;;;;;;3.58;1.92;;;13.90;99.90;;;;;;5097054;28;20040;-80
2022/07/12 00:53:32;;;;;;;3.15;2.40;;;13.80;99.90;;;;;;5116797;28;20506;-80
2022/07/12 00:55:59;;;;;;;3.03;2.10;;;13.90;99.90;;;;;;5080497;28;20053;-80
2022/07/12 00:58:26;;;;;;;3.88;2.00;;;13.80;99.90;;;;;;5098955;28;20111;-80
2022/07/12 01:00:54;;;;;;;3.50;2.35;;;13.80;99.90;;;;;;5080363;28;20051;-80
2022/07/12 01:03:20;;;;;;;2.33;1.73;;;13.80;99.90;;;;;;5097519;28;20048;-80
2022/07/12 01:05:46;;;;;;;3.92;2.10;;;13.80;99.90;;;;;;5097043;28;20043;-80
2022/07/12 01:08:13;;;;;;;5.55;2.10;;;13.80;99.90;;;;;;5097761;28;20044;-80
2022/07/12 01:10:39;;;;;;;2.50;1.90;;;13.70;99.90;;;;;;5097640;28;20035;-80
2022/07/12 01:13:05;;;;;;;4.40;1.98;;;13.70;99.90;;;;;;5097465;28;20040;-80
2022/07/12 01:15:31;;;;;;;3.67;1.65;;;13.80;99.90;;;;;;5097414;28;20115;-80
2022/07/12 01:17:58;;;;;;;2.92;1.83;;;13.70;99.90;;;;;;5096985;28;20046;-80
2022/07/12 01:20:23;;;;;;;3.47;2.00;;;13.70;99.90;;;;;;5097505;28;20111;-80
2022/07/12 01:22:59;;;;;;;2.63;1.90;;;13.70;99.90;;;;;;5097274;28;20104;-80
2022/07/12 01:25:25;;;;;;;2.33;1.40;;;13.60;99.90;;;;;;5097075;28;20050;-80
2022/07/12 01:27:51;;;;;;;2.17;1.58;;;13.60;99.90;;;;;;5097066;28;20058;-80
2022/07/12 01:30:17;;;;;;;4.20;1.58;;;13.60;99.90;;;;;;5097042;28;20043;-80
2022/07/12 01:32:43;;;;;;;2.20;1.55;;;13.60;99.90;;;;;;5096930;28;20043;-80
2022/07/12 01:35:09;;;;;;;2.53;1.75;;;13.50;99.90;;;;;;5096953;28;20491;-80
2022/07/12 01:37:37;;;;;;;2.83;1.60;;;13.50;99.90;;;;;;5096975;28;20051;-80
2022/07/12 01:40:11;;;;;;;2.55;1.63;;;13.40;99.90;;;;;;5096427;28;20384;-80
2022/07/12 01:42:37;;;;;;;2.83;1.65;;;13.50;99.90;;;;;;5080865;28;20048;-80
2022/07/12 01:45:04;;;;;;;2.40;1.67;;;13.50;99.90;;;;;;5097273;28;20043;-80
2022/07/12 01:47:32;;;;;;;2.15;1.65;;;13.40;99.90;;;;;;5096686;28;20043;-80
2022/07/12 01:49:59;;;;;;;2.72;1.73;;;13.40;99.90;;;;;;5096538;28;20573;-80
2022/07/12 01:52:25;;;;;;;4.65;1.80;;;13.40;99.90;;;;;;5089300;28;20096;-79
2022/07/12 01:54:51;;;;;;;2.97;1.67;;;13.40;99.90;;;;;;5111289;28;20046;-79
2022/07/12 01:57:17;;;;;;;2.67;1.92;;;13.50;99.90;;;;;;5110878;28;20040;-79
2022/07/12 01:59:43;;;;;;;3.00;1.60;;;13.40;99.90;;;;;;5093880;28;20032;-80
2022/07/12 02:02:09;;;;;;;4.15;1.67;;;13.50;99.90;;;;;;5112396;28;20040;-80
2022/07/12 02:04:35;;;;;;;2.13;1.70;;;13.30;99.90;;;;;;5093902;28;20088;-80
2022/07/12 02:07:01;;;;;;;3.00;1.85;;;13.40;99.90;;;;;;5093725;28;20039;-80
2022/07/12 02:09:27;;;;;;;3.20;1.88;;;13.30;99.90;;;;;;5076774;28;20422;-80
2022/07/12 02:11:54;;;;;;;3.35;1.90;;;13.30;99.90;;;;;;5094266;28;20771;-80
2022/07/12 02:14:19;;;;;;;5.82;1.70;;;13.10;99.90;;;;;;5093824;28;20031;-80
2022/07/12 02:16:45;;;;;;;2.33;1.45;;;13.10;99.90;;;;;;5093720;28;20093;-80
2022/07/12 02:19:12;;;;;;;1.80;1.25;;;13.00;99.90;;;;;;5093718;28;20520;-80
2022/07/12 02:21:38;;;;;;;3.25;1.20;;;12.90;99.90;;;;;;5093302;28;20047;-80
2022/07/12 02:24:04;;;;;;;2.05;1.60;;;12.80;99.90;;;;;;5094159;28;20051;-80
2022/07/12 02:26:33;;;;;;;2.03;1.20;;;12.80;99.90;;;;;;5093770;28;20124;-80
2022/07/12 02:28:59;;;;;;;1.67;1.17;;;12.80;99.90;;;;;;5094077;28;20058;-80
2022/07/12 02:31:25;;;;;;;3.55;1.17;;;12.70;99.90;;;;;;5093528;28;20040;-80
2022/07/12 02:33:51;;;;;;;3.13;1.35;;;12.70;99.90;;;;;;5094235;28;20494;-80
2022/07/12 02:36:17;;;;;;;1.92;1.33;;;12.60;99.90;;;;;;5094080;28;20089;-80
2022/07/12 02:38:42;;;;;;;2.53;1.48;;;12.60;99.90;;;;;;5094010;28;20036;-80
2022/07/12 02:41:08;;;;;;;4.93;1.48;;;12.50;99.90;;;;;;5093935;28;20510;-80
2022/07/12 02:43:34;;;;;;;3.42;2.00;;;12.40;99.90;;;;;;5112064;28;20039;-80
2022/07/12 02:46:04;;;;;;;7.43;2.15;;;12.30;99.90;;;;;;5093869;28;20039;-80
2022/07/12 02:48:29;;;;;;;1.90;1.52;;;12.20;99.90;;;;;;5093801;28;20054;-80
2022/07/12 02:50:55;;;;;;;1.85;1.48;;;12.20;99.90;;;;;;5093858;28;20402;-80
2022/07/12 02:53:21;;;;;;;1.95;1.20;;;12.10;99.90;;;;;;5094066;28;20055;-80
2022/07/12 02:55:47;;;;;;;2.35;1.23;;;12.00;99.90;;;;;;5094047;28;20040;-80
2022/07/12 02:58:13;;;;;;;2.28;1.35;;;12.20;99.90;;;;;;5093803;28;20044;-79
2022/07/12 03:00:38;;;;;;;4.15;1.50;;;12.30;99.90;;;;;;5093830;28;20047;-79
2022/07/12 03:03:07;;;;;;;2.25;1.55;;;12.20;99.90;;;;;;5094307;28;20395;-79
2022/07/12 03:05:33;;;;;;;5.28;1.75;;;12.20;99.90;;;;;;5094231;28;20058;-80
2022/07/12 03:07:59;;;;;;;10.43;2.30;;;12.20;99.90;;;;;;5077255;28;20482;-80
2022/07/12 03:10:24;;;;;;;22.35;1.88;;;12.10;99.90;;;;;;5093946;28;20040;-80
2022/07/12 03:12:50;;;;;;;34.92;2.95;;;12.00;99.90;;;;;;5094009;28;20048;-79
2022/07/12 03:15:16;;;;;;;20.33;2.03;;;12.00;99.90;;;;;;5094225;28;20040;-80
2022/07/12 03:17:42;;;;;;;15.85;2.00;;;12.00;99.90;;;;;;5095242;28;20035;-80
2022/07/12 03:20:08;;;;;;;1.55;1.35;;;11.90;99.90;;;;;;5111715;28;20548;-80
2022/07/12 03:22:34;;;;;;;2.38;1.13;;;11.90;99.90;;;;;;5093346;28;20043;-80
2022/07/12 03:25:00;;;;;;;1.80;1.10;;;12.00;99.90;;;;;;5093125;28;20379;-79
2022/07/12 03:27:25;;;;;;;2.53;1.10;;;11.90;99.90;;;;;;5093464;28;20074;-79
2022/07/12 03:29:51;;;;;;;1.05;0.90;;;11.90;99.90;;;;;;5093483;28;20441;-79
2022/07/12 03:32:17;;;;;;;1.75;1.08;;;12.00;99.90;;;;;;5093274;28;20548;-79
2022/07/12 03:34:42;;;;;;;1.40;1.00;;;11.90;99.90;;;;;;5096364;28;20043;-80
2022/07/12 03:37:08;;;;;;;1.38;0.82;;;12.00;99.90;;;;;;5115720;28;20051;-79
2022/07/12 03:39:33;;;;;;;0.80;0.70;;;12.00;99.90;;;;;;5097502;28;20054;-79
2022/07/12 03:41:59;;;;;;;1.33;0.90;;;12.10;99.90;;;;;;5097357;28;20506;-80
2022/07/12 03:44:24;;;;;;;1.40;0.90;;;12.10;99.90;;;;;;5098024;28;20082;-80
2022/07/12 03:46:50;;;;;;;4.00;1.85;;;12.10;99.90;;;;;;5097702;28;20043;-79
2022/07/12 03:49:16;;;;;;;0.80;0.63;;;12.10;99.90;;;;;;5097273;28;20055;-80
2022/07/12 03:51:42;;;;;;;1.35;0.65;;;12.10;99.90;;;;;;5096866;28;20450;-79
2022/07/12 03:54:07;;;;;;;4.78;1.52;;;12.10;99.90;;;;;;5097749;28;20047;-79
2022/07/12 03:59:19;;;;;;;2.10;1.13;;;12.00;99.90;;;;;;5097719;28;20116;-79
2022/07/12 04:01:44;;;;;;;2.95;1.40;;;11.90;99.90;;;;;;5080147;28;20039;-80
2022/07/12 04:04:10;;;;;;;1.38;0.90;;;12.00;99.90;;;;;;5080388;28;20070;-80
2022/07/12 04:06:36;;;;;;;0.80;0.80;;;12.00;99.90;;;;;;5097626;28;20052;-80
2022/07/12 04:09:02;;;;;;;1.45;1.00;;;12.00;99.90;;;;;;5097749;28;20409;-80
2022/07/12 04:11:27;;;;;;;0.80;0.80;;;12.00;99.90;;;;;;5096797;28;20040;-80
2022/07/12 04:13:53;;;;;;;2.20;1.15;;;12.00;99.90;;;;;;5097335;28;20043;-80
2022/07/12 04:16:19;;;;;;;2.17;1.50;;;12.00;99.90;;;;;;5097602;28;20081;-80
2022/07/12 04:18:44;;;;;;;4.60;1.92;;;12.10;99.90;;;;;;5097523;28;20550;-80
2022/07/12 04:21:10;;;;;;;3.38;1.70;;;12.10;99.90;;;;;;5097133;28;20048;-80
2022/07/12 04:23:35;;;;;;;2.58;1.40;;;12.00;99.90;;;;;;5097425;28;20036;-80
2022/07/12 04:26:01;;;;;;;3.95;1.58;;;12.20;99.90;;;;;;5097001;28;20040;-80
2022/07/12 04:28:26;;;;;;;2.05;1.13;;;12.20;99.90;;;;;;5097083;28;20051;-80
2022/07/12 04:30:52;;;;;;;2.33;1.20;;;12.30;99.90;;;;;;5097434;28;20543;-80
2022/07/12 04:33:17;;;;;;;2.50;1.27;;;12.30;99.90;;;;;;5097081;28;20036;-85
2022/07/12 04:35:43;;;;;;;2.03;1.50;;;12.40;99.90;;;;;;5096137;28;20071;-85
2022/07/12 05:20:19;;;;;;;;;;;;;;;;;;;;;
2022/07/12 05:38:11;;;;;;;3.25;2.55;;;19.40;99.90;;;;;;5029663;28;20416;-84
2022/07/12 05:40:46;;;;;;;;;;;20.30;99.90;;;;;;5013936;28;20037;-84
2022/07/12 05:43:22;;;;;;;2.78;2.08;;;20.70;99.90;;;;;;5068798;28;19917;-85
2022/07/12 05:49:37;;;;;;;3.47;2.90;;;21.90;99.90;;;;;;5224272;22;20058;-85
2022/07/12 05:54:53;;;;;;;2.38;1.95;;;22.70;99.90;;;;;;5093349;28;20139;-85
2022/07/12 05:57:25;;;;;;;4.05;1.88;;;23.00;99.90;;;;;;5093161;28;20105;-85
2022/07/12 05:59:51;;;;;;;2.83;1.60;;;23.10;99.90;;;;;;5093346;28;20046;-84
2022/07/12 06:02:58;;;;;;;2.65;1.83;;;22.70;99.90;;;;;;5076735;28;20073;-84
2022/07/12 06:05:59;;;;;;;1.85;1.65;;;22.20;99.90;;;;;;5077314;28;20051;-84
2022/07/12 06:09:13;;;;;;;1.90;1.77;;;21.50;99.90;;;;;;5093586;28;20551;-83
2022/07/12 06:11:39;;;;;;;2.22;2.03;;;21.10;99.90;;;;;;5046759;28;20066;-84
2022/07/12 06:21:57;;;;;;;2.95;2.28;;;20.00;99.90;;;;;;4965604;28;20046;-84
2022/07/12 06:24:34;;;;;;;3.42;2.20;;;19.80;99.90;;;;;;4994923;28;20052;-84
2022/07/12 06:27:33;;;;;;;;;;;;;;;;;;;;;
2022/07/12 06:30:50;;;;;;;;;;;;;;;;;;;;;
2022/07/12 06:37:22;;;;;;;2.85;2.38;;;19.60;99.90;;;;;;4974229;28;20045;-84
2022/07/12 06:40:24;;;;;;;3.35;2.83;;;19.70;99.90;;;;;;5058548;28;20076;-85
2022/07/12 06:43:16;;;;;;;6.53;3.63;;;19.80;99.90;;;;;;5061056;28;20524;-86
2022/07/12 06:45:53;;;;;;;4.05;3.65;;;19.90;99.90;;;;;;5031986;28;20041;-85
2022/07/12 06:48:26;;;;;;;4.47;4.07;;;20.00;99.90;;;;;;5090877;28;20051;-86
2022/07/12 06:51:12;;;;;;;5.35;3.83;;;20.10;99.90;;;;;;5092506;28;20504;-86
2022/07/12 06:53:51;;;;;;;;;;;;;;;;;;;;;
2022/07/12 06:56:48;;;;;;;5.25;4.55;;;20.50;99.90;;;;;;5107780;28;20094;-86
2022/07/12 06:59:27;;;;;;;5.65;4.43;;;20.70;99.90;;;;;;5077722;28;20042;-85
2022/07/12 07:02:33;;;;;;;3.50;3.20;;;21.00;99.90;;;;;;5092851;28;20031;-86
2022/07/12 07:08:30;;;;;;;3.97;3.35;;;21.50;99.90;;;;;;5094786;28;20047;-84
2022/07/12 07:11:10;;;;;;;3.70;3.35;;;21.70;99.90;;;;;;5079949;28;20040;-84
2022/07/12 07:13:42;;;;;;;3.75;2.92;;;22.20;99.90;;;;;;5052002;28;20095;-84
2022/07/12 07:16:29;;;;;;;4.82;3.22;;;22.80;99.90;;;;;;5093079;28;20048;-84
2022/07/12 07:19:29;;;;;;;4.05;3.10;;;23.50;99.90;;;;;;5115737;28;20078;-84
2022/07/12 07:22:41;;;;;;;3.33;3.03;;;24.20;99.90;;;;;;5097024;28;20097;-83
2022/07/12 07:25:31;;;;;;;3.85;2.40;;;24.60;99.90;;;;;;5097030;28;20069;-83
2022/07/12 07:39:00;;;;;;;3.42;2.88;;;25.40;99.90;;;;;;5329270;22;20130;-83
2022/07/12 07:41:40;;;;;;;2.80;2.60;;;25.40;99.90;;;;;;5079530;28;20054;-83
2022/07/12 07:45:07;;;;;;;2.67;2.47;;;25.30;99.90;;;;;;5079564;28;20039;-83
2022/07/12 07:54:14;;;;;;;4.32;2.30;;;25.30;99.90;;;;;;5083650;28;20069;-82
2022/07/12 08:00:58;;;;;;;2.03;1.80;;;25.50;99.90;;;;;;5012700;28;20092;-82
2022/07/12 08:03:58;;;;;;;3.10;1.98;;;25.80;99.90;;;;;;5002346;28;20570;-82
2022/07/12 08:10:34;;;;;;;2.42;2.22;;;26.30;99.90;;;;;;4977429;28;20124;-82
2022/07/12 08:13:06;;;;;;;3.75;2.10;;;26.30;99.90;;;;;;4995359;28;20085;-83
2022/07/12 08:16:11;;;;;;;2.10;1.90;;;26.50;99.90;;;;;;4997632;28;20042;-82
2022/07/12 08:18:59;;;;;;;2.00;1.80;;;26.60;99.90;;;;;;4996490;28;20132;-82
2022/07/12 08:22:05;;;;;;;;;;;;;;;;;;;;;
2022/07/12 08:25:08;;;;;;;2.33;1.65;;;26.80;99.90;;;;;;4952486;29;20057;-83
2022/07/12 08:27:37;;;;;;;2.53;1.55;;;26.60;99.90;;;;;;4943466;28;20055;-82
2022/07/12 08:30:04;;;;;;;1.85;1.67;;;26.50;99.90;;;;;;5011226;28;20053;-83
2022/07/12 08:39:27;;;;;;;3.35;1.95;;;26.60;99.90;;;;;;5148682;22;20314;-83
2022/07/12 08:43:15;;;;;;;1.83;1.60;;;26.70;99.90;;;;;;5091193;28;20355;-83
2022/07/12 08:53:55;;;;;;;;;;;;;;;;;;;;;
2022/07/12 08:57:06;;;;;;;2.50;1.70;;;26.20;99.90;;;;;;4858848;29;20501;-83
2022/07/12 08:59:32;;;;;;;4.13;1.80;;;26.30;99.90;;;;;;4896819;28;20054;-82
2022/07/12 09:01:59;;;;;;;3.15;2.70;;;26.40;99.90;;;;;;4973624;28;20058;-82
2022/07/12 09:04:27;;;;;;;2.95;1.63;;;26.60;99.90;;;;;;5075089;28;20048;-83
2022/07/12 09:07:17;;;;;;;2.88;2.05;;;26.80;99.90;;;;;;5074846;28;20048;-84
2022/07/12 09:09:48;;;;;;;2.20;2.00;;;27.00;99.90;;;;;;5074459;28;20042;-83
2022/07/12 09:12:51;;;;;;;3.60;2.13;;;27.20;99.90;;;;;;5058430;28;20051;-84
2022/07/12 09:15:46;;;;;;;2.95;2.00;;;27.40;99.90;;;;;;5076441;28;20091;-84
2022/07/12 09:19:19;;;;;;;2.05;1.77;;;27.60;99.90;;;;;;5074462;28;20040;-84
2022/07/12 09:21:51;;;;;;;3.70;1.50;;;27.90;99.90;;;;;;4977655;28;20053;-84
2022/07/12 09:24:33;;;;;;;4.63;1.95;;;28.10;99.90;;;;;;5024592;28;20506;-83
2022/07/12 09:27:04;;;;;;;3.33;2.20;;;28.00;99.90;;;;;;5093984;22;21226;-84
2022/07/12 09:29:49;;;;;;;4.32;1.98;;;28.30;99.90;;;;;;5094954;28;20043;-84
2022/07/12 09:36:07;;;;;;;2.75;1.90;;;28.60;95.20;;;;;;5013172;28;20076;-83
2022/07/12 09:39:00;;;;;;;2.63;2.42;;;28.50;98.40;;;;;;4993741;28;20048;-83
2022/07/12 09:41:27;;;;;;;3.00;1.70;;;28.40;96.00;;;;;;4993227;28;20046;-84
2022/07/12 09:44:02;;;;;;;2.00;1.30;;;28.30;98.30;;;;;;5048135;28;20502;-84
2022/07/12 09:46:28;;;;;;;3.03;1.42;;;28.30;97.00;;;;;;5074323;28;20078;-79
2022/07/12 09:48:54;;;;;;;2.05;1.65;;;28.20;97.20;;;;;;5074844;28;20341;-79
2022/07/12 09:51:21;;;;;;;2.30;1.55;;;28.10;96.40;;;;;;5057489;28;20057;-79
2022/07/12 09:53:48;;;;;;;1.35;1.10;;;28.10;96.60;;;;;;5092628;28;20035;-79
2022/07/12 09:56:20;;;;;;;2.20;1.83;;;28.10;96.50;;;;;;5074161;28;20075;-79
2022/07/12 09:58:53;;;;;;;2.80;2.03;;;28.10;96.70;;;;;;5074210;28;20118;-79
2022/07/12 10:01:20;;;;;;;2.22;1.70;;;28.00;96.10;;;;;;5074171;28;20055;-79
2022/07/12 10:03:46;;;;;;;1.98;1.70;;;28.10;95.20;;;;;;5092858;28;20065;-79
2022/07/12 10:06:15;;;;;;;1.50;1.20;;;28.30;94.50;;;;;;5073636;28;20052;-79
2022/07/12 10:08:41;;;;;;;1.00;0.90;;;28.40;95.40;;;;;;5073592;28;20123;-79
2022/07/12 10:11:07;;;;;;;1.63;1.00;;;28.30;95.70;;;;;;5074437;28;20119;-79
2022/07/12 10:13:35;;;;;;;2.13;1.10;;;28.30;94.60;;;;;;5073915;28;20071;-79
2022/07/12 10:16:02;;;;;;;3.50;1.48;;;28.70;94.00;;;;;;5074159;28;20515;-79
2022/07/12 10:18:28;;;;;;;2.10;1.90;;;28.80;91.80;;;;;;5074193;28;20525;-79
2022/07/12 10:20:54;;;;;;;2.35;2.15;;;28.80;91.40;;;;;;5075601;28;20407;-79
2022/07/12 10:23:20;;;;;;;2.42;1.30;;;28.80;91.50;;;;;;5075220;28;20040;-79
2022/07/12 10:25:49;;;;;;;1.85;1.63;;;28.60;93.00;;;;;;5059916;28;20051;-79
2022/07/12 10:28:15;;;;;;;3.10;1.17;;;28.60;92.60;;;;;;5094002;28;20431;-79
2022/07/12 10:30:43;;;;;;;1.60;1.27;;;28.60;92.90;;;;;;5075447;28;20125;-79
2022/07/12 10:33:23;;;;;;;2.08;1.25;;;28.80;92.60;;;;;;5094437;28;20047;-79
2022/07/12 10:36:06;;;;;;;1.20;0.90;;;28.90;94.00;;;;;;5075214;28;20041;-79
2022/07/12 10:38:33;;;;;;;1.90;1.52;;;28.90;91.10;;;;;;5075245;28;20052;-78
2022/07/12 10:41:19;;;;;;;2.15;1.08;;;28.80;91.30;;;;;;5074844;28;20052;-77
2022/07/12 10:46:29;;;;;;;0.88;0.70;;;28.70;92.30;;;;;;5091319;28;20055;-78
2022/07/12 10:49:24;;;;;;;1.02;0.90;;;28.70;91.20;;;;;;5073335;28;20036;-78
2022/07/12 10:52:10;;;;;;;1.55;0.95;;;28.50;91.40;;;;;;5091130;28;20066;-78
2022/07/12 10:54:50;;;;;;;2.60;1.73;;;28.50;92.20;;;;;;5062568;28;20101;-78
2022/07/12 10:57:36;;;;;;;2.28;1.40;;;28.50;90.60;;;;;;5072955;28;20044;-79
2022/07/12 11:00:02;;;;;;;1.42;1.30;;;28.40;92.00;;;;;;5062881;28;20060;-79
2022/07/12 11:02:28;;;;;;;2.90;1.55;;;28.30;92.80;;;;;;5074070;28;20130;-79
2022/07/12 11:04:54;;;;;;;1.15;0.90;;;28.30;92.60;;;;;;5073689;28;20415;-79
2022/07/12 11:07:20;;;;;;;1.50;1.40;;;28.30;93.10;;;;;;5056337;28;20043;-80
2022/07/12 11:09:50;;;;;;;1.38;1.25;;;28.30;93.00;;;;;;5072574;28;20036;-79
2022/07/12 11:12:17;;;;;;;1.70;1.10;;;28.40;92.00;;;;;;5091235;28;20047;-78
2022/07/12 11:14:45;;;;;;;1.65;1.17;;;28.50;92.10;;;;;;5073054;28;20040;-78
2022/07/12 11:17:10;;;;;;;1.65;1.13;;;28.50;91.90;;;;;;5073141;28;20059;-80
2022/07/12 11:19:36;;;;;;;1.00;0.85;;;28.50;91.50;;;;;;5072802;28;20047;-79
2022/07/12 11:22:02;;;;;;;1.00;0.70;;;28.60;92.00;;;;;;5072678;28;20502;-79
2022/07/12 11:24:30;;;;;;;1.58;1.20;;;28.70;91.00;;;;;;5073291;28;20032;-79
2022/07/12 11:26:56;;;;;;;1.38;1.05;;;28.60;90.00;;;;;;5056467;28;20453;-79
2022/07/12 11:29:22;;;;;;;1.23;0.70;;;28.50;89.80;;;;;;5072674;28;20052;-80
2022/07/12 11:31:48;;;;;;;2.65;0.55;;;28.30;90.30;;;;;;5072710;28;20071;-80
2022/07/12 11:34:24;;;;;;;1.08;0.52;;;28.30;87.90;;;;;;5072507;28;20483;-80
2022/07/12 11:36:57;;;;;;;5.18;1.35;;;28.40;88.10;;;;;;5055854;28;20044;-81
2022/07/12 11:39:40;;;;;;;1.83;1.02;;;28.40;90.00;;;;;;5073490;28;20498;-80
2022/07/12 11:42:07;;;;;;;2.10;0.90;;;28.50;89.60;;;;;;5057916;28;20043;-81
2022/07/12 11:44:51;;;;;;;2.05;0.88;;;28.60;91.30;;;;;;5092103;28;20096;-81
2022/07/12 11:47:18;;;;;;;2.67;0.95;;;28.80;91.20;;;;;;5078229;28;20043;-81
2022/07/12 11:49:55;;;;;;;0.90;0.73;;;28.90;90.50;;;;;;5114116;28;20047;-80
2022/07/12 11:52:24;;;;;;;1.20;0.70;;;29.10;89.40;;;;;;5085330;28;20131;-80
2022/07/12 11:54:53;;;;;;;2.15;1.02;;;29.10;89.40;;;;;;5073420;28;20036;-80
2022/07/12 11:57:21;;;;;;;2.33;0.95;;;29.10;86.20;;;;;;5076479;28;20040;-80
2022/07/12 11:59:47;;;;;;;4.03;1.00;;;29.00;90.00;;;;;;5076231;28;20496;-81
2022/07/12 12:02:15;;;;;;;1.13;0.70;;;28.80;90.20;;;;;;5076290;28;20124;-81
2022/07/12 12:04:49;;;;;;;2.92;0.80;;;28.70;88.20;;;;;;5059514;28;20054;-81
2022/07/12 12:07:16;;;;;;;0.73;0.63;;;28.60;88.50;;;;;;5075909;28;20032;-81
2022/07/12 12:10:01;;;;;;;0.65;0.65;;;28.60;88.90;;;;;;5075355;28;20064;-80
2022/07/12 12:12:43;;;;;;;1.15;0.80;;;28.70;89.90;;;;;;5075690;28;20495;-81
2022/07/12 12:15:11;;;;;;;0.22;0.22;;;28.70;88.60;;;;;;5059368;28;20039;-80
2022/07/12 12:17:44;;;;;;;1.17;0.40;;;28.80;83.80;;;;;;5076079;28;20376;-81
2022/07/12 12:20:18;;;;;;;0.47;0.45;;;28.90;76.40;;;;;;5094489;28;20119;-80
2022/07/12 12:22:50;;;;;;;0.30;0.30;;;29.10;77.90;;;;;;5093798;28;20051;-81
2022/07/12 12:25:16;;;;;;;1.38;0.50;;;29.20;76.50;;;;;;5075641;28;20059;-79
2022/07/12 12:28:04;;;;;;;0.63;0.30;;;29.30;74.00;;;;;;5058994;28;20040;-80
2022/07/12 12:30:33;;;;;;;1.98;0.40;;;29.30;78.00;;;;;;5075480;28;20048;-81
2022/07/12 12:33:04;;;;;;;0.45;0.45;;;29.40;73.60;;;;;;5093588;28;20449;-81
2022/07/12 12:35:37;;;;;;;1.23;0.60;;;29.50;72.70;;;;;;5076067;28;20115;-81
2022/07/12 12:38:14;;;;;;;0.75;0.40;;;29.50;73.40;;;;;;5093853;28;20032;-79
2022/07/12 12:40:40;;;;;;;0.50;0.50;;;29.60;72.00;;;;;;5094351;28;20543;-81
2022/07/12 12:43:18;;;;;;;1.20;0.40;;;29.60;69.70;;;;;;5094970;28;20150;-80
2022/07/12 12:45:55;;;;;;;2.17;0.57;;;29.40;67.70;;;;;;5076033;28;20064;-80
2022/07/12 12:48:26;;;;;;;0.50;0.50;;;29.30;70.90;;;;;;5075610;28;20078;-79
2022/07/12 12:51:11;;;;;;;2.13;0.50;;;29.40;70.50;;;;;;5075794;28;20491;-80
2022/07/12 12:53:39;;;;;;;0.52;0.40;;;29.50;69.90;;;;;;5075742;28;20036;-80
2022/07/12 12:56:13;;;;;;;0.63;0.35;;;29.60;69.30;;;;;;5076132;28;20519;-80
2022/07/12 12:58:39;;;;;;;0.47;0.47;;;29.70;69.10;;;;;;5076133;28;20072;-81
2022/07/12 13:01:06;;;;;;;2.50;0.50;;;29.80;70.20;;;;;;5075017;28;20052;-80
2022/07/12 13:03:32;;;;;;;1.05;0.52;;;29.90;71.70;;;;;;5058850;28;20078;-78
2022/07/12 13:05:58;;;;;;;0.70;0.32;;;30.00;70.40;;;;;;5074714;28;20096;-79
2022/07/12 13:08:24;;;;;;;2.95;0.52;;;30.10;70.20;;;;;;5074715;28;20433;-80
2022/07/12 13:13:39;;;;;;;0.80;0.52;;;29.80;68.60;;;;;;5074727;28;20055;-80
2022/07/12 13:16:05;;;;;;;0.60;0.50;;;29.60;71.80;;;;;;5074658;28;20078;-80
2022/07/12 13:18:31;;;;;;;2.10;0.50;;;29.60;69.90;;;;;;5058426;28;20476;-80
2022/07/12 13:20:57;;;;;;;0.28;0.28;;;29.50;68.20;;;;;;5075631;28;20514;-80
2022/07/12 13:23:23;;;;;;;1.48;0.50;;;29.50;70.40;;;;;;5075970;28;20040;-79
2022/07/12 13:25:48;;;;;;;2.00;0.68;;;29.50;69.00;;;;;;5058393;28;20044;-79
2022/07/12 13:28:14;;;;;;;0.82;0.60;;;29.40;67.80;;;;;;5075045;28;20039;-80
2022/07/12 13:30:40;;;;;;;0.60;0.45;;;29.20;68.50;;;;;;5094292;28;20048;-80
2022/07/12 13:33:05;;;;;;;0.63;0.52;;;29.20;69.20;;;;;;5094240;28;20036;-81
2022/07/12 13:35:31;;;;;;;0.82;0.45;;;29.20;69.60;;;;;;5074152;28;20158;-80
2022/07/12 13:37:57;;;;;;;1.90;0.57;;;29.20;70.50;;;;;;5074707;28;20085;-81
2022/07/12 13:40:23;;;;;;;2.97;0.80;;;29.30;71.80;;;;;;5057192;28;20119;-79
2022/07/12 13:42:51;;;;;;;0.80;0.57;;;29.40;68.10;;;;;;5074477;28;20044;-80
2022/07/12 13:45:24;;;;;;;0.73;0.73;;;29.40;69.50;;;;;;5073904;28;20093;-79
2022/07/12 13:47:51;;;;;;;0.98;0.77;;;29.50;69.30;;;;;;5075270;28;20043;-80
2022/07/12 13:50:19;;;;;;;1.25;0.70;;;29.60;67.40;;;;;;5075326;28;20044;-81
2022/07/12 13:52:46;;;;;;;0.80;0.80;;;29.40;65.20;;;;;;5057831;28;20054;-80
2022/07/12 13:55:13;;;;;;;1.35;0.70;;;29.50;65.30;;;;;;5075061;28;20046;-80
2022/07/12 13:57:39;;;;;;;0.60;0.60;;;29.30;65.60;;;;;;5075573;28;20044;-80
2022/07/12 14:00:11;;;;;;;0.80;0.80;;;29.30;66.60;;;;;;5074636;28;20047;-80
2022/07/12 14:02:38;;;;;;;2.03;0.60;;;29.30;68.40;;;;;;5075996;28;20044;-80
2022/07/12 14:05:05;;;;;;;1.25;0.68;;;29.40;71.10;;;;;;5059539;28;20495;-80
2022/07/12 14:07:31;;;;;;;1.88;0.60;;;29.40;70.90;;;;;;5073016;28;20149;-80
2022/07/12 14:09:57;;;;;;;2.10;0.73;;;29.40;69.50;;;;;;5074434;28;20071;-80
2022/07/12 14:12:23;;;;;;;1.38;0.88;;;29.40;68.80;;;;;;5058619;28;20047;-80
2022/07/12 14:17:33;;;;;;;0.57;0.50;;;29.20;64.80;;;;;;5074603;28;20055;-82
2022/07/12 14:19:59;;;;;;;1.08;0.60;;;29.00;65.20;;;;;;5074876;28;20041;-81
2022/07/12 14:22:25;;;;;;;1.38;0.60;;;28.80;66.40;;;;;;5055237;28;20076;-81
2022/07/12 14:24:51;;;;;;;1.42;0.60;;;28.70;67.20;;;;;;5055581;28;20121;-80
2022/07/12 14:27:17;;;;;;;3.20;0.40;;;28.60;69.30;;;;;;5052781;28;20040;-81
2022/07/12 14:29:42;;;;;;;1.60;0.68;;;28.50;69.30;;;;;;5070244;28;20036;-81
2022/07/12 14:32:09;;;;;;;2.35;0.70;;;28.50;68.20;;;;;;5090365;28;20136;-81
2022/07/12 14:34:34;;;;;;;1.90;0.70;;;28.40;68.50;;;;;;5051024;28;20039;-79
2022/07/12 14:37:01;;;;;;;4.22;0.60;;;28.30;69.10;;;;;;5054765;28;20040;-81
2022/07/12 14:39:26;;;;;;;0.70;0.50;;;28.30;72.30;;;;;;5074127;28;20310;-81
2022/07/12 14:41:52;;;;;;;3.13;0.70;;;28.40;76.20;;;;;;5053761;28;20032;-80
2022/07/12 14:44:18;;;;;;;1.77;1.42;;;28.50;77.50;;;;;;5065066;28;20090;-81
2022/07/12 14:46:44;;;;;;;1.20;1.10;;;28.40;78.40;;;;;;5051689;28;20043;-81
2022/07/12 14:49:10;;;;;;;1.42;1.20;;;28.40;79.10;;;;;;5071629;28;20035;-81
2022/07/12 14:51:36;;;;;;;1.45;0.65;;;28.40;79.30;;;;;;5072509;28;20036;-80
2022/07/12 14:54:01;;;;;;;1.30;0.63;;;28.40;78.70;;;;;;5091108;28;20036;-80
2022/07/12 14:56:27;;;;;;;1.08;0.80;;;28.40;80.50;;;;;;5072792;28;20039;-80
2022/07/12 14:58:53;;;;;;;0.60;0.60;;;28.30;82.90;;;;;;5091931;28;20475;-80
2022/07/12 15:01:19;;;;;;;0.65;0.65;;;28.20;81.90;;;;;;5089220;28;20048;-80
2022/07/12 15:03:44;;;;;;;1.95;0.50;;;28.20;82.30;;;;;;5070855;28;20040;-83
2022/07/12 15:06:10;;;;;;;3.28;0.80;;;28.20;83.40;;;;;;5071365;28;20093;-82
2022/07/12 15:08:36;;;;;;;2.25;0.80;;;28.10;83.70;;;;;;5073613;28;20044;-82
2022/07/12 15:11:02;;;;;;;1.60;0.50;;;28.00;82.20;;;;;;5072085;28;20043;-81
2022/07/12 15:13:30;;;;;;;0.50;0.50;;;27.90;82.10;;;;;;5055355;28;20560;-81
2022/07/12 15:15:57;;;;;;;1.48;1.20;;;27.90;80.30;;;;;;5055397;28;20075;-81
2022/07/12 15:18:24;;;;;;;1.23;0.60;;;27.90;82.80;;;;;;5070832;28;20075;-81
2022/07/12 15:20:50;;;;;;;0.85;0.70;;;27.80;82.60;;;;;;5068107;28;20052;-81
2022/07/12 15:23:15;;;;;;;1.60;0.60;;;27.70;82.00;;;;;;5072076;28;20076;-81
2022/07/12 15:25:41;;;;;;;1.88;0.80;;;27.70;81.20;;;;;;5054710;28;20083;-81
2022/07/12 15:28:07;;;;;;;1.48;0.70;;;27.60;80.20;;;;;;5067378;28;20048;-81